Time;durP1;ratioP1;P1;durP2;ratioP2;P2;SDS_P1;SDS_P2;PMS_P1;PMS_P2;Temp;Humidity;BMP_temperature;BMP_pressure;BME280_temperature;BME280_humidity;BME280_pressure;Samples;Min_cycle;Max_cycle;Signal;HPM_P1;HPM_P2
2022/04/03 00:00:58;;;;;;;0.20;0.10;;;;;;;2.81;78.03;100509.25;5038299;28;20412;-80
2022/04/03 00:04:18;;;;;;;0.20;0.10;;;;;;;2.85;77.83;100516.25;5038383;28;20451;-80
2022/04/03 00:07:55;;;;;;;0.20;0.10;;;;;;;2.88;78.34;100526.81;5038265;28;20455;-82
2022/04/03 00:11:20;;;;;;;0.20;0.10;;;;;;;2.99;78.31;100546.09;4986601;28;20491;-81
2022/04/03 00:14:55;;;;;;;0.20;0.10;;;;;;;3.10;78.79;100549.69;5026689;28;21014;-82
2022/04/03 00:20:16;;;;;;;0.20;0.10;;;;;;;2.99;78.17;100559.22;4940779;29;20479;-52
2022/04/03 00:22:48;;;;;;;0.20;0.20;;;;;;;2.98;77.80;100552.22;4943111;29;20968;-53
2022/04/03 00:25:16;;;;;;;0.20;0.10;;;;;;;3.10;77.82;100554.94;4942733;29;20976;-52
2022/04/03 00:27:42;;;;;;;0.20;0.10;;;;;;;3.16;76.76;100554.09;4930885;29;20504;-52
2022/04/03 00:30:10;;;;;;;0.20;0.10;;;;;;;3.06;77.36;100553.16;4940711;29;20459;-52
2022/04/03 00:32:36;;;;;;;0.20;0.10;;;;;;;3.10;77.58;100559.31;4942203;29;20500;-52
2022/04/03 00:35:04;;;;;;;0.20;0.10;;;;;;;3.09;76.70;100554.94;4941052;29;20956;-52
2022/04/03 00:37:32;;;;;;;0.20;0.10;;;;;;;3.13;77.09;100559.31;4928801;28;20535;-53
2022/04/03 00:39:59;;;;;;;0.20;0.10;;;;;;;3.04;76.71;100556.66;4941467;29;20467;-52
2022/04/03 00:42:26;;;;;;;0.20;0.10;;;;;;;3.17;77.40;100561.13;4941172;29;20485;-52
2022/04/03 00:44:53;;;;;;;0.20;0.20;;;;;;;3.15;76.87;100566.38;4941439;29;20452;-53
2022/04/03 00:47:20;;;;;;;0.20;0.10;;;;;;;3.11;76.68;100556.69;5023624;28;20480;-53
2022/04/03 00:49:47;;;;;;;0.20;0.10;;;;;;;3.17;76.28;100563.75;4928588;29;20469;-53
2022/04/03 00:52:14;;;;;;;0.20;0.10;;;;;;;3.22;76.29;100568.13;4928112;29;20532;-52
2022/04/03 00:54:40;;;;;;;0.20;0.10;;;;;;;2.97;76.14;100561.84;4940649;29;20861;-53
2022/04/03 00:57:08;;;;;;;0.20;0.10;;;;;;;3.16;76.82;100561.97;4936143;29;20529;-53
2022/04/03 00:59:35;;;;;;;0.20;0.10;;;;;;;2.91;77.16;100561.81;4938551;29;20452;-52
2022/04/03 01:02:03;;;;;;;0.20;0.10;;;;;;;3.18;76.95;100563.75;4940197;29;20530;-52
2022/04/03 01:04:30;;;;;;;0.20;0.10;;;;;;;3.16;76.54;100565.50;4940502;28;20458;-52
2022/04/03 01:06:58;;;;;;;0.20;0.10;;;;;;;3.27;75.58;100573.41;4937834;29;20484;-52
2022/04/03 01:09:26;;;;;;;0.50;0.47;;;;;;;3.18;75.84;100571.63;4922754;29;20449;-52
2022/04/03 01:11:53;;;;;;;1.07;1.07;;;;;;;3.12;75.62;100574.19;4936708;29;20498;-52
2022/04/03 01:14:49;;;;;;;0.20;0.10;;;;;;;3.12;75.66;100571.56;4980898;28;20513;-52
2022/04/03 01:17:16;;;;;;;0.20;0.10;;;;;;;3.09;75.98;100578.56;4949123;28;20484;-52
2022/04/03 01:19:43;;;;;;;0.20;0.10;;;;;;;3.12;75.29;100568.06;4941141;29;20468;-52
2022/04/03 01:22:09;;;;;;;0.20;0.10;;;;;;;2.99;75.68;100572.34;4936579;29;20452;-52
2022/04/03 01:24:36;;;;;;;0.20;0.10;;;;;;;3.23;75.79;100576.91;4940781;29;20456;-52
2022/04/03 01:27:03;;;;;;;0.20;0.20;;;;;;;3.03;76.04;100574.16;4940147;29;20888;-52
2022/04/03 01:29:30;;;;;;;0.20;0.10;;;;;;;3.01;76.61;100573.25;4940124;29;20460;-53
2022/04/03 01:31:57;;;;;;;0.20;0.10;;;;;;;2.79;77.71;100579.22;4940149;29;21152;-53
2022/04/03 01:34:24;;;;;;;0.20;0.10;;;;;;;2.76;77.64;100580.09;4940183;29;20507;-52
2022/04/03 01:36:50;;;;;;;0.20;0.20;;;;;;;2.51;78.69;100576.38;4934308;29;20534;-52
2022/04/03 01:39:17;;;;;;;0.20;0.10;;;;;;;2.24;81.10;100576.13;4921353;29;20453;-52
2022/04/03 01:41:44;;;;;;;0.20;0.10;;;;;;;2.27;82.25;100582.28;4939958;29;20453;-53
2022/04/03 01:44:12;;;;;;;0.20;0.10;;;;;;;2.33;82.21;100576.19;4940898;29;20479;-52
2022/04/03 01:46:39;;;;;;;0.20;0.20;;;;;;;2.30;83.31;100581.41;4927555;29;20473;-52
2022/04/03 01:49:06;;;;;;;0.20;0.10;;;;;;;2.23;83.62;100579.63;4927903;28;20865;-52
2022/04/03 01:51:34;;;;;;;0.20;0.10;;;;;;;2.18;85.67;100583.91;4952330;28;20926;-52
2022/04/03 01:54:01;;;;;;;0.20;0.10;;;;;;;2.07;85.81;100574.22;4934886;29;20492;-52
2022/04/03 01:56:28;;;;;;;0.20;0.10;;;;;;;1.98;87.05;100579.38;4928803;29;20840;-52
2022/04/03 01:58:54;;;;;;;0.20;0.10;;;;;;;1.87;88.54;100585.34;4941010;29;20460;-52
2022/04/03 02:01:21;;;;;;;0.20;0.10;;;;;;;1.81;88.52;100580.94;4939999;29;20479;-52
2022/04/03 02:03:48;;;;;;;0.20;0.10;;;;;;;1.72;89.52;100583.44;4940304;28;20812;-52
2022/04/03 02:06:15;;;;;;;0.20;0.10;;;;;;;1.69;88.75;100586.03;4940138;29;20472;-52
2022/04/03 02:08:43;;;;;;;0.20;0.10;;;;;;;1.68;89.04;100587.75;4928000;29;20889;-53
2022/04/03 02:11:10;;;;;;;0.20;0.20;;;;;;;1.62;89.22;100590.28;4940160;29;20456;-52
2022/04/03 02:13:36;;;;;;;0.20;0.10;;;;;;;1.62;90.55;100584.16;4949518;28;21079;-52
2022/04/03 02:16:04;;;;;;;0.20;0.10;;;;;;;1.46;89.93;100586.59;4996826;28;20894;-53
2022/04/03 02:18:31;;;;;;;0.20;0.10;;;;;;;1.26;91.64;100592.44;4939695;29;20460;-52
2022/04/03 02:20:57;;;;;;;0.20;0.10;;;;;;;1.17;92.67;100590.56;4939912;29;20514;-52
2022/04/03 02:23:24;;;;;;;0.20;0.10;;;;;;;1.25;92.73;100596.81;4936082;29;20857;-52
2022/04/03 02:25:52;;;;;;;0.20;0.10;;;;;;;1.12;93.13;100587.91;4939359;29;21147;-53
2022/04/03 02:28:19;;;;;;;0.20;0.20;;;;;;;1.11;93.00;100588.75;4940451;29;20507;-52
2022/04/03 02:30:48;;;;;;;0.20;0.10;;;;;;;0.99;93.17;100590.31;4940046;29;20469;-53
2022/04/03 02:33:15;;;;;;;0.20;0.10;;;;;;;0.98;93.54;100593.78;4939744;29;20492;-52
2022/04/03 02:35:41;;;;;;;0.20;0.10;;;;;;;1.05;93.57;100593.88;4929721;29;20481;-52
2022/04/03 02:38:08;;;;;;;0.20;0.10;;;;;;;0.91;95.02;100600.66;4933988;29;20457;-52
2022/04/03 02:40:35;;;;;;;0.20;0.20;;;;;;;0.99;95.13;100600.78;4920720;29;20453;-52
2022/04/03 02:43:02;;;;;;;0.20;0.10;;;;;;;1.02;95.16;100596.47;4924568;29;20459;-53
2022/04/03 02:45:29;;;;;;;0.20;0.10;;;;;;;1.01;94.27;100602.56;4939868;29;20468;-52
2022/04/03 02:47:56;;;;;;;0.20;0.10;;;;;;;0.97;95.54;100600.75;4939648;29;20539;-52
2022/04/03 02:50:25;;;;;;;0.20;0.10;;;;;;;0.98;94.66;100599.03;4939697;29;20464;-52
2022/04/03 02:52:54;;;;;;;0.20;0.10;;;;;;;1.19;93.11;100596.69;4938834;29;20496;-52
2022/04/03 02:55:22;;;;;;;0.20;0.10;;;;;;;1.25;89.55;100611.63;4939518;29;20480;-52
2022/04/03 02:57:49;;;;;;;0.67;0.67;;;;;;;1.35;89.99;100606.53;4938973;29;20456;-52
2022/04/03 03:00:17;;;;;;;0.30;0.20;;;;;;;1.33;90.35;100604.75;4939055;29;20530;-52
2022/04/03 03:02:45;;;;;;;0.20;0.10;;;;;;;1.27;91.59;100604.69;4939004;28;20869;-52
2022/04/03 03:05:14;;;;;;;0.20;0.10;;;;;;;1.29;92.02;100605.56;4939525;29;20480;-53
2022/04/03 03:07:42;;;;;;;0.20;0.10;;;;;;;1.32;90.93;100597.75;4933202;28;20964;-52
2022/04/03 03:10:16;;;;;;;0.20;0.10;;;;;;;1.33;89.12;100603.00;4920422;29;20485;-52
2022/04/03 03:12:44;;;;;;;0.20;0.10;;;;;;;1.41;87.94;100598.78;4939473;29;20491;-52
2022/04/03 03:15:12;;;;;;;0.20;0.10;;;;;;;1.38;89.16;100605.72;4938753;29;20460;-52
2022/04/03 03:17:40;;;;;;;0.20;0.10;;;;;;;1.51;88.53;100609.34;4930978;29;20824;-53
2022/04/03 03:20:07;;;;;;;0.20;0.10;;;;;;;1.39;88.86;100592.63;4931260;29;20464;-52
2022/04/03 03:22:35;;;;;;;0.30;0.20;;;;;;;1.31;89.36;100596.00;4930888;29;20456;-53
2022/04/03 03:25:05;;;;;;;0.20;0.10;;;;;;;1.30;89.31;100609.94;4938586;29;20498;-53
2022/04/03 03:27:35;;;;;;;0.20;0.10;;;;;;;1.34;88.29;100604.75;4938684;29;20461;-52
2022/04/03 03:30:07;;;;;;;0.20;0.10;;;;;;;1.32;88.17;100609.09;4938574;28;20464;-52
2022/04/03 03:32:34;;;;;;;0.20;0.10;;;;;;;1.31;88.26;100612.59;4938707;29;20479;-52
2022/04/03 03:35:01;;;;;;;0.20;0.10;;;;;;;1.25;89.88;100609.91;4938736;29;20456;-52
2022/04/03 03:37:28;;;;;;;0.20;0.10;;;;;;;1.23;89.78;100614.19;4927832;29;20453;-52
2022/04/03 03:39:55;;;;;;;0.20;0.10;;;;;;;1.19;89.55;100613.28;4935068;29;20460;-52
2022/04/03 03:42:22;;;;;;;4.93;0.97;;;;;;;1.20;88.88;100616.78;4927184;29;20950;-53
2022/04/03 03:44:49;;;;;;;0.20;0.10;;;;;;;1.15;91.04;100618.47;4937623;29;20452;-55
2022/04/03 03:47:16;;;;;;;0.20;0.10;;;;;;;1.13;90.72;100615.81;4938371;29;20476;-52
2022/04/03 03:49:43;;;;;;;0.20;0.10;;;;;;;1.13;91.02;100621.06;4938089;29;20452;-53
2022/04/03 03:52:10;;;;;;;0.20;0.10;;;;;;;1.05;91.42;100621.78;4926667;29;20528;-52
2022/04/03 03:54:36;;;;;;;0.20;0.10;;;;;;;0.98;90.57;100628.69;4935946;29;20496;-52
2022/04/03 03:57:03;;;;;;;0.20;0.10;;;;;;;0.88;92.18;100625.03;4938161;29;20499;-52
2022/04/03 03:59:30;;;;;;;0.20;0.10;;;;;;;0.88;92.01;100624.16;4938200;29;20456;-52
2022/04/03 04:01:57;;;;;;;0.20;0.20;;;;;;;0.91;93.14;100632.03;4938316;29;20467;-52
2022/04/03 04:04:24;;;;;;;0.20;0.10;;;;;;;0.81;92.67;100632.75;4937087;29;20517;-52
2022/04/03 04:06:50;;;;;;;0.20;0.10;;;;;;;0.79;93.02;100630.09;4937804;29;20475;-57
2022/04/03 04:09:17;;;;;;;0.20;0.10;;;;;;;0.78;91.64;100644.06;4918583;29;20449;-53
2022/04/03 04:11:43;;;;;;;0.20;0.20;;;;;;;0.71;91.96;100641.31;4932221;29;20456;-52
2022/04/03 04:14:10;;;;;;;0.20;0.13;;;;;;;0.69;92.84;100648.28;4940013;29;20515;-52
2022/04/03 04:16:37;;;;;;;0.20;0.10;;;;;;;0.63;91.87;100642.91;4937963;29;20503;-52
2022/04/03 04:19:06;;;;;;;0.20;0.10;;;;;;;0.71;92.52;100657.91;4925525;29;20468;-52
2022/04/03 04:21:33;;;;;;;0.20;0.10;;;;;;;0.76;92.99;100650.13;4930500;29;20456;-52
2022/04/03 04:23:59;;;;;;;0.20;0.10;;;;;;;0.67;93.72;100655.19;4938015;29;20873;-52
2022/04/03 04:26:26;;;;;;;0.20;0.10;;;;;;;0.61;92.99;100653.34;4937634;29;20515;-52
2022/04/03 04:28:53;;;;;;;0.20;0.10;;;;;;;0.63;92.58;100651.63;4937831;29;20826;-52
2022/04/03 04:31:19;;;;;;;0.20;0.10;;;;;;;0.52;94.15;100658.41;4937454;29;20510;-52
2022/04/03 04:33:46;;;;;;;0.20;0.10;;;;;;;0.59;93.33;100655.06;4936774;28;20488;-52
2022/04/03 04:36:13;;;;;;;0.20;0.10;;;;;;;0.40;94.17;100655.56;4935583;29;20841;-52
2022/04/03 04:38:39;;;;;;;0.20;0.10;;;;;;;0.41;94.30;100662.56;4919775;29;20453;-52
2022/04/03 04:41:06;;;;;;;0.20;0.10;;;;;;;0.53;93.60;100657.56;4934465;29;20456;-51
2022/04/03 04:43:32;;;;;;;0.20;0.10;;;;;;;0.54;93.53;100659.31;4930208;29;20507;-52
2022/04/03 04:45:59;;;;;;;0.20;0.10;;;;;;;0.48;94.41;100670.56;4931825;29;20993;-53
2022/04/03 04:48:26;;;;;;;0.33;0.33;;;;;;;0.49;93.21;100676.66;4937043;29;20452;-52
2022/04/03 04:50:52;;;;;;;0.20;0.10;;;;;;;0.50;94.03;100670.59;4936163;29;20465;-52
2022/04/03 04:53:21;;;;;;;0.20;0.20;;;;;;;0.45;94.23;100675.75;4936852;29;20496;-52
2022/04/03 04:55:47;;;;;;;0.20;0.10;;;;;;;0.40;93.91;100679.97;4936839;29;20476;-52
2022/04/03 04:58:14;;;;;;;0.20;0.10;;;;;;;0.28;95.49;100683.28;4937310;29;20453;-52
2022/04/03 05:00:41;;;;;;;0.20;0.10;;;;;;;0.27;94.90;100680.59;4937163;28;20538;-52
2022/04/03 05:03:08;;;;;;;0.20;0.10;;;;;;;0.31;95.16;100686.78;4936660;29;20456;-52
2022/04/03 05:05:35;;;;;;;0.20;0.10;;;;;;;0.42;92.56;100693.13;4939661;29;20476;-52
2022/04/03 05:08:02;;;;;;;0.20;0.10;;;;;;;0.46;93.04;100692.31;4930735;29;20480;-52
2022/04/03 05:10:30;;;;;;;0.20;0.10;;;;;;;0.55;91.82;100701.22;4937723;29;20452;-52
2022/04/03 05:12:59;;;;;;;0.50;0.50;;;;;;;0.63;90.31;100698.72;4940304;29;20464;-52
2022/04/03 05:15:28;;;;;;;0.20;0.10;;;;;;;0.61;90.57;100703.03;5007354;28;20472;-52
2022/04/03 05:17:55;;;;;;;0.20;0.10;;;;;;;0.49;90.97;100700.19;4939390;29;20514;-52
2022/04/03 05:20:22;;;;;;;0.20;0.10;;;;;;;0.56;90.68;100707.31;4939515;29;20897;-52
2022/04/03 05:22:49;;;;;;;0.20;0.10;;;;;;;0.47;90.84;100708.03;4934137;29;20464;-52
2022/04/03 05:25:15;;;;;;;0.20;0.20;;;;;;;0.53;92.11;100707.25;4938375;29;20476;-51
2022/04/03 05:27:44;;;;;;;0.20;0.10;;;;;;;0.75;90.46;100716.38;4939027;29;20514;-52
2022/04/03 05:30:12;;;;;;;0.20;0.10;;;;;;;0.96;89.70;100708.91;4939194;29;20510;-52
2022/04/03 05:32:39;;;;;;;0.20;0.10;;;;;;;1.13;88.32;100712.69;4939480;29;20456;-53
2022/04/03 05:35:07;;;;;;;0.20;0.10;;;;;;;1.06;87.87;100715.16;4937518;29;20492;-52
2022/04/03 05:37:41;;;;;;;0.20;0.10;;;;;;;1.39;85.67;100712.22;4940027;29;20452;-52
2022/04/03 05:40:11;;;;;;;0.20;0.10;;;;;;;1.62;84.22;100715.16;4939728;29;20821;-52
2022/04/03 05:42:38;;;;;;;0.20;0.10;;;;;;;1.76;84.24;100716.22;4940117;29;20803;-53
2022/04/03 05:45:05;;;;;;;1.30;1.23;;;;;;;1.98;83.71;100705.19;4936865;29;20478;-52
2022/04/03 05:47:33;;;;;;;0.20;0.10;;;;;;;1.68;82.21;100712.66;4937531;29;20945;-52
2022/04/03 05:50:00;;;;;;;0.30;0.20;;;;;;;1.96;82.02;100717.41;4939986;29;20452;-52
2022/04/03 05:52:27;;;;;;;0.20;0.10;;;;;;;2.37;81.31;100719.66;4940202;28;20452;-52
2022/04/03 05:54:53;;;;;;;0.40;0.40;;;;;;;1.87;81.99;100722.50;4939505;29;20496;-52
2022/04/03 05:57:20;;;;;;;0.20;0.10;;;;;;;1.98;80.44;100725.28;4939860;29;20958;-53
2022/04/03 05:59:47;;;;;;;0.20;0.10;;;;;;;1.93;82.51;100729.59;4939841;29;20452;-53
2022/04/03 06:02:13;;;;;;;4.13;1.83;;;;;;;2.31;79.73;100730.94;4939106;29;20801;-53
2022/04/03 06:04:40;;;;;;;0.20;0.10;;;;;;;2.02;79.02;100738.44;4939535;28;20522;-52
2022/04/03 06:07:07;;;;;;;0.20;0.17;;;;;;;2.28;78.40;100737.88;4939258;29;20499;-53
2022/04/03 06:09:34;;;;;;;0.20;0.10;;;;;;;2.10;79.94;100742.91;4931315;29;20542;-53
2022/04/03 06:12:01;;;;;;;0.20;0.10;;;;;;;2.49;79.12;100739.91;4922354;29;20458;-53
2022/04/03 06:14:28;;;;;;;0.20;0.10;;;;;;;1.97;80.19;100753.22;4939161;29;20520;-52
2022/04/03 06:16:54;;;;;;;0.20;0.10;;;;;;;2.04;79.78;100744.56;4936271;29;20863;-53
2022/04/03 06:19:21;;;;;;;0.20;0.10;;;;;;;1.93;79.53;100754.06;4919679;29;20477;-54
2022/04/03 06:21:48;;;;;;;0.20;0.10;;;;;;;2.04;80.06;100746.31;4929890;29;20571;-53
2022/04/03 06:24:15;;;;;;;0.20;0.10;;;;;;;1.88;81.15;100746.97;4938800;29;20464;-53
2022/04/03 06:26:41;;;;;;;0.20;0.10;;;;;;;1.92;81.00;100748.75;4938043;29;21001;-52
2022/04/03 06:29:08;;;;;;;0.20;0.10;;;;;;;2.00;80.97;100749.75;4938665;29;20954;-52
2022/04/03 06:31:35;;;;;;;0.70;0.70;;;;;;;2.03;80.72;100761.16;4939385;29;20866;-52
2022/04/03 06:34:02;;;;;;;0.20;0.10;;;;;;;2.19;80.87;100758.75;4937488;28;20503;-55
2022/04/03 06:36:29;;;;;;;0.20;0.10;;;;;;;2.29;78.79;100758.88;4934581;29;20476;-52
2022/04/03 06:38:55;;;;;;;0.20;0.10;;;;;;;2.90;76.42;100758.72;4917798;29;20464;-51
2022/04/03 06:41:23;;;;;;;0.20;0.10;;;;;;;3.12;74.60;100759.78;4920812;29;20465;-51
2022/04/03 06:43:49;;;;;;;0.20;0.10;;;;;;;3.25;73.59;100762.53;4937112;29;21018;-51
2022/04/03 06:46:16;;;;;;;0.20;0.10;;;;;;;2.98;73.38;100772.78;4937229;29;20908;-51
2022/04/03 06:48:43;;;;;;;0.20;0.10;;;;;;;3.44;71.62;100762.69;4937246;29;20460;-52
2022/04/03 06:51:10;;;;;;;0.20;0.20;;;;;;;3.37;71.06;100777.50;4936905;29;20452;-51
2022/04/03 06:53:37;;;;;;;0.20;0.20;;;;;;;3.36;70.17;100780.13;4936893;29;20456;-57
2022/04/03 06:56:03;;;;;;;0.30;0.30;;;;;;;3.56;68.86;100778.53;4936784;29;20488;-51
2022/04/03 06:58:30;;;;;;;0.20;0.10;;;;;;;3.30;68.65;100778.34;4936925;29;20452;-50
2022/04/03 07:00:57;;;;;;;0.20;0.10;;;;;;;3.54;69.02;100773.28;4936484;29;20452;-52
2022/04/03 07:03:24;;;;;;;0.20;0.10;;;;;;;3.25;67.81;100780.03;4936510;29;20452;-53
2022/04/03 07:05:50;;;;;;;0.20;0.10;;;;;;;3.30;67.90;100780.09;4935290;29;20481;-52
2022/04/03 07:08:17;;;;;;;0.20;0.10;;;;;;;3.48;67.05;100781.13;4926575;28;20450;-52
2022/04/03 07:10:45;;;;;;;0.20;0.10;;;;;;;3.57;67.25;100775.06;4934110;29;20502;-56
2022/04/03 07:13:11;;;;;;;0.20;0.10;;;;;;;3.61;64.85;100782.09;4936292;29;20960;-52
2022/04/03 07:15:38;;;;;;;0.73;0.73;;;;;;;3.46;65.00;100782.84;4936054;29;21069;-53
2022/04/03 07:18:05;;;;;;;0.20;0.10;;;;;;;3.65;65.62;100778.59;4925539;28;20464;-53
2022/04/03 07:20:31;;;;;;;0.20;0.10;;;;;;;3.62;65.23;100783.84;4934236;29;20502;-52
2022/04/03 07:22:58;;;;;;;0.20;0.10;;;;;;;3.61;63.76;100792.59;4931749;29;20459;-55
2022/04/03 07:25:24;;;;;;;0.20;0.10;;;;;;;3.84;63.31;100793.66;4936292;29;20993;-49
2022/04/03 07:27:51;;;;;;;0.20;0.10;;;;;;;3.80;62.89;100797.13;4936063;29;20456;-49
2022/04/03 07:30:18;;;;;;;0.20;0.10;;;;;;;3.68;62.56;100790.88;4936181;28;20483;-50
2022/04/03 07:32:44;;;;;;;0.20;0.10;;;;;;;3.99;62.42;100797.25;4936135;29;20957;-52
2022/04/03 07:35:13;;;;;;;0.20;0.10;;;;;;;3.89;60.75;100795.44;4935942;29;20492;-52
2022/04/03 07:37:40;;;;;;;0.20;0.10;;;;;;;4.02;60.30;100797.28;4924928;29;20457;-52
2022/04/03 07:40:08;;;;;;;0.20;0.10;;;;;;;3.90;58.99;100808.59;4933846;29;20456;-52
2022/04/03 07:42:36;;;;;;;0.20;0.10;;;;;;;3.89;57.89;100811.22;4936604;28;20543;-53
2022/04/03 07:45:04;;;;;;;0.20;0.10;;;;;;;3.96;59.54;100811.25;4935874;29;20490;-51
2022/04/03 07:47:32;;;;;;;0.20;0.10;;;;;;;3.94;59.34;100812.13;4936010;29;20452;-50
2022/04/03 07:49:59;;;;;;;0.20;0.10;;;;;;;4.10;57.22;100814.84;4924414;29;20933;-51
2022/04/03 07:52:25;;;;;;;0.20;0.10;;;;;;;4.33;57.90;100819.38;4923252;29;20453;-51
2022/04/03 07:54:52;;;;;;;0.20;0.13;;;;;;;4.09;58.10;100814.84;4935923;29;20549;-50
2022/04/03 07:57:19;;;;;;;0.20;0.10;;;;;;;4.20;56.10;100817.53;4936243;29;20484;-50
2022/04/03 07:59:46;;;;;;;0.20;0.10;;;;;;;4.22;54.84;100824.56;4935691;29;20460;-51
2022/04/03 08:02:13;;;;;;;0.20;0.10;;;;;;;4.36;54.77;100825.53;4936359;29;20452;-51
2022/04/03 08:04:40;;;;;;;0.20;0.10;;;;;;;4.32;53.40;100825.50;4935425;28;20455;-51
2022/04/03 08:07:07;;;;;;;0.20;0.10;;;;;;;4.29;53.71;100814.97;4935063;29;20895;-50
2022/04/03 08:09:34;;;;;;;0.20;0.10;;;;;;;4.06;53.56;100830.59;4914696;29;20516;-51
2022/04/03 08:12:02;;;;;;;0.20;0.10;;;;;;;4.35;51.52;100828.16;4915619;29;20484;-52
2022/04/03 08:14:29;;;;;;;0.20;0.10;;;;;;;4.49;52.22;100826.47;4934627;29;21073;-52
2022/04/03 08:16:55;;;;;;;0.20;0.10;;;;;;;4.72;51.95;100829.19;4933036;29;20511;-51
2022/04/03 08:19:22;;;;;;;0.20;0.10;;;;;;;4.49;51.53;100825.59;4925339;29;20535;-51
2022/04/03 08:21:49;;;;;;;0.20;0.10;;;;;;;4.77;50.96;100830.09;4930955;29;20834;-52
2022/04/03 08:24:15;;;;;;;0.20;0.10;;;;;;;4.66;50.84;100834.44;4936203;29;20514;-52
2022/04/03 08:26:42;;;;;;;0.20;0.10;;;;;;;4.75;50.68;100834.47;4935373;28;20542;-52
2022/04/03 08:29:09;;;;;;;0.20;0.10;;;;;;;4.59;48.52;100838.81;4935870;29;20491;-52
2022/04/03 08:31:35;;;;;;;0.20;0.10;;;;;;;4.84;48.52;100837.16;4935117;29;20533;-53
2022/04/03 08:34:02;;;;;;;0.20;0.10;;;;;;;4.82;49.11;100838.91;4936334;29;20456;-52
2022/04/03 08:36:29;;;;;;;0.20;0.10;;;;;;;4.94;48.77;100840.72;4932408;29;20485;-52
2022/04/03 08:38:56;;;;;;;0.20;0.10;;;;;;;5.00;48.57;100845.97;4917337;29;20484;-52
2022/04/03 08:41:23;;;;;;;0.20;0.10;;;;;;;5.09;46.88;100837.22;4934656;29;20539;-53
2022/04/03 08:43:49;;;;;;;0.20;0.10;;;;;;;5.12;47.35;100834.59;4939038;29;20452;-52
2022/04/03 08:46:17;;;;;;;0.20;0.10;;;;;;;5.20;46.80;100836.34;4938820;29;20472;-52
2022/04/03 08:48:46;;;;;;;0.20;0.10;;;;;;;5.09;45.37;100850.41;4938602;29;20456;-52
2022/04/03 08:51:14;;;;;;;0.20;0.10;;;;;;;5.00;45.26;100854.75;4938782;29;20460;-52
2022/04/03 08:53:44;;;;;;;0.20;0.10;;;;;;;5.33;46.33;100859.22;4937833;29;20452;-52
2022/04/03 08:56:11;;;;;;;0.20;0.10;;;;;;;5.18;43.25;100848.66;4938445;29;21012;-52
2022/04/03 08:58:37;;;;;;;0.20;0.20;;;;;;;5.31;44.43;100846.94;4938756;29;20506;-53
2022/04/03 09:01:04;;;;;;;0.20;0.20;;;;;;;5.41;44.45;100861.00;4938737;29;20452;-52
2022/04/03 09:03:31;;;;;;;0.20;0.10;;;;;;;5.16;42.23;100854.81;4938845;29;20458;-52
2022/04/03 09:06:15;;;;;;;0.20;0.20;;;;;;;5.42;44.22;100853.09;4938719;28;20480;-52
2022/04/03 09:08:42;;;;;;;0.20;0.20;;;;;;;5.52;46.57;100854.88;4925808;29;20524;-52
2022/04/03 09:11:10;;;;;;;0.20;0.10;;;;;;;5.62;44.97;100850.50;4938239;29;21106;-52
2022/04/03 09:13:38;;;;;;;0.20;0.10;;;;;;;5.60;43.25;100868.06;4947811;28;20867;-52
2022/04/03 09:16:05;;;;;;;0.20;0.10;;;;;;;5.83;43.56;100876.88;4994375;28;20527;-54
2022/04/03 09:18:53;;;;;;;0.20;0.10;;;;;;;5.69;42.87;100868.06;4938030;29;20471;-52
2022/04/03 09:21:21;;;;;;;0.20;0.10;;;;;;;5.54;41.89;100870.69;4935549;29;20820;-53
2022/04/03 09:24:22;;;;;;;0.20;0.10;;;;;;;5.24;42.53;100847.81;4937349;28;20510;-59
2022/04/03 09:27:01;;;;;;;0.20;0.10;;;;;;;5.37;42.54;100862.78;4939526;28;20980;-52
2022/04/03 09:29:28;;;;;;;0.20;0.10;;;;;;;5.46;42.94;100865.41;4938694;29;20463;-52
2022/04/03 09:32:00;;;;;;;0.20;0.10;;;;;;;5.23;43.59;100861.88;4936217;29;20879;-52
2022/04/03 09:34:29;;;;;;;0.20;0.10;;;;;;;5.47;43.68;100867.16;4938006;29;20578;-52
2022/04/03 09:36:57;;;;;;;0.20;0.10;;;;;;;5.56;41.77;100859.25;4925738;29;20538;-52
2022/04/03 09:39:27;;;;;;;0.20;0.10;;;;;;;5.94;44.48;100866.34;4925164;29;20457;-52
2022/04/03 09:42:05;;;;;;;0.20;0.10;;;;;;;5.61;40.53;100868.03;4938280;29;20950;-52
2022/04/03 09:44:36;;;;;;;0.30;0.10;;;;;;;6.00;43.46;100863.69;4938333;29;20444;-52
2022/04/03 09:47:18;;;;;;;0.20;0.10;;;;;;;5.79;41.73;100871.59;4934562;29;20472;-53
2022/04/03 09:49:52;;;;;;;0.20;0.20;;;;;;;6.17;42.81;100855.78;4934914;29;20452;-52
2022/04/03 09:52:33;;;;;;;0.20;0.10;;;;;;;6.63;43.88;100861.81;4935951;29;20514;-52
2022/04/03 09:55:00;;;;;;;0.30;0.20;;;;;;;6.15;41.09;100858.41;4926383;29;20565;-56
2022/04/03 09:57:27;;;;;;;0.30;0.10;;;;;;;6.44;42.50;100854.81;4925327;29;20461;-53
2022/04/03 09:59:55;;;;;;;0.30;0.20;;;;;;;6.46;43.08;100855.72;4937703;29;20484;-52
2022/04/03 10:02:23;;;;;;;0.30;0.10;;;;;;;6.31;42.73;100867.19;4937276;29;20452;-52
2022/04/03 10:04:52;;;;;;;0.20;0.10;;;;;;;6.22;41.87;100856.63;4937821;29;20448;-52
2022/04/03 10:07:20;;;;;;;0.20;0.10;;;;;;;6.69;41.99;100848.56;4935218;29;20485;-52
2022/04/03 10:09:48;;;;;;;0.20;0.20;;;;;;;6.90;41.29;100854.66;4928582;29;21019;-52
2022/04/03 10:12:20;;;;;;;0.20;0.10;;;;;;;6.64;42.08;100849.50;4937478;29;20456;-51
2022/04/03 10:14:51;;;;;;;0.20;0.10;;;;;;;6.54;40.62;100848.63;4937234;29;20484;-53
2022/04/03 10:17:20;;;;;;;0.20;0.10;;;;;;;6.95;41.47;100843.19;4932520;29;20480;-53
2022/04/03 10:19:47;;;;;;;0.30;0.10;;;;;;;6.60;42.18;100843.34;4918423;29;20461;-52
2022/04/03 10:22:19;;;;;;;0.23;0.20;;;;;;;6.70;40.25;100852.97;4928427;29;20486;-52
2022/04/03 10:24:53;;;;;;;0.30;0.20;;;;;;;6.78;40.53;100842.38;4937471;29;20475;-51
2022/04/03 10:27:24;;;;;;;0.27;0.20;;;;;;;6.90;39.29;100842.34;4937520;29;20448;-52
2022/04/03 10:29:55;;;;;;;0.20;0.20;;;;;;;6.94;40.53;100841.44;4937624;29;20452;-52
2022/04/03 10:32:33;;;;;;;0.30;0.20;;;;;;;6.90;39.58;100837.06;4934941;29;20495;-52
2022/04/03 10:35:06;;;;;;;0.30;0.10;;;;;;;7.29;39.07;100838.59;4934430;29;20504;-52
2022/04/03 10:37:34;;;;;;;0.30;0.10;;;;;;;7.13;40.03;100836.94;4924430;29;20449;-52
2022/04/03 10:40:17;;;;;;;0.30;0.10;;;;;;;6.68;40.34;100853.88;4936455;29;20536;-52
2022/04/03 10:42:51;;;;;;;0.30;0.17;;;;;;;6.26;40.20;100857.50;4937502;29;20476;-52
2022/04/03 10:45:29;;;;;;;0.30;0.17;;;;;;;6.53;40.66;100842.47;4936684;29;20468;-53
2022/04/03 10:48:20;;;;;;;0.20;0.10;;;;;;;6.58;40.32;100846.84;4936987;29;20448;-52
2022/04/03 10:51:01;;;;;;;0.20;0.10;;;;;;;6.92;38.67;100839.69;4936393;28;20471;-52
2022/04/03 10:53:39;;;;;;;0.30;0.20;;;;;;;6.52;37.11;100842.47;4937085;29;20956;-52
2022/04/03 10:56:19;;;;;;;0.20;0.20;;;;;;;6.61;38.61;100834.53;4936656;29;21089;-51
2022/04/03 10:58:48;;;;;;;0.30;0.10;;;;;;;6.80;40.50;100838.84;4937299;29;20445;-51
2022/04/03 11:01:28;;;;;;;0.20;0.20;;;;;;;6.95;40.81;100837.91;4936865;29;21003;-51
2022/04/03 11:04:05;;;;;;;0.30;0.10;;;;;;;6.80;40.81;100836.22;4937021;29;20461;-55
2022/04/03 11:06:35;;;;;;;0.20;0.10;;;;;;;6.96;39.14;100818.50;4937129;29;20460;-51
2022/04/03 11:09:14;;;;;;;0.30;0.10;;;;;;;6.73;40.19;100823.94;4924706;29;20456;-51
2022/04/03 11:11:43;;;;;;;0.20;0.20;;;;;;;6.59;38.11;100825.75;4937707;29;20590;-51
2022/04/03 11:14:12;;;;;;;0.20;0.10;;;;;;;6.63;39.36;100813.41;4936967;29;20453;-51
2022/04/03 11:16:53;;;;;;;0.30;0.10;;;;;;;6.56;37.82;100811.66;4936736;29;20622;-51
2022/04/03 11:19:40;;;;;;;0.30;0.20;;;;;;;7.13;38.51;100816.66;4917444;29;21043;-51
2022/04/03 11:22:15;;;;;;;0.20;0.10;;;;;;;7.24;39.24;100816.56;4930216;29;20448;-51
2022/04/03 11:24:42;;;;;;;0.30;0.20;;;;;;;7.21;37.08;100810.44;4937006;29;20468;-52
2022/04/03 11:27:09;;;;;;;0.30;0.20;;;;;;;7.22;36.05;100815.72;4930317;29;20482;-52
2022/04/03 11:29:36;;;;;;;0.30;0.20;;;;;;;7.55;37.23;100806.69;4930149;29;20506;-52
2022/04/03 11:32:06;;;;;;;0.20;0.10;;;;;;;7.54;36.34;100809.31;4923549;29;20495;-51
2022/04/03 11:34:33;;;;;;;0.23;0.10;;;;;;;7.52;37.13;100803.16;4925092;29;20460;-51
2022/04/03 11:37:03;;;;;;;0.30;0.20;;;;;;;7.10;37.10;100808.72;4929294;29;20469;-52
2022/04/03 11:39:32;;;;;;;0.30;0.20;;;;;;;7.07;36.64;100807.88;4926114;29;20510;-52
2022/04/03 11:42:08;;;;;;;0.30;0.20;;;;;;;7.05;37.84;100793.81;4936166;29;20510;-52
2022/04/03 11:44:37;;;;;;;0.30;0.20;;;;;;;7.37;38.29;100794.44;4922852;29;20535;-52
2022/04/03 11:47:19;;;;;;;0.30;0.20;;;;;;;7.33;38.33;100776.84;4936195;29;20535;-54